createdAt,value
2023-02-02T00:01:09.271Z,99034.37
2023-02-02T00:05:06.903Z,99023.13
2023-02-02T00:09:03.687Z,99028.71
2023-02-02T00:13:23.972Z,99027.75
2023-02-02T00:17:38.258Z,99021.77
2023-02-02T00:20:57.039Z,99024.20
2023-02-02T00:24:55.708Z,99020.35
2023-02-02T00:28:50.977Z,99009.10
2023-02-02T00:32:48.626Z,99008.44
2023-02-02T00:36:48.529Z,99008.42
2023-02-02T00:41:02.657Z,99007.67
2023-02-02T00:44:41.916Z,99012.73
2023-02-02T00:49:08.913Z,99014.65
2023-02-02T00:53:23.157Z,99018.42
2023-02-02T00:56:08.033Z,99025.89
2023-02-02T00:59:12.128Z,99024.64
2023-02-02T01:01:57.217Z,99018.39
2023-02-02T01:04:42.354Z,99020.42
2023-02-02T01:09:27.971Z,99016.80
2023-02-02T01:12:58.528Z,99023.86
2023-02-02T01:17:01.791Z,99024.34
2023-02-02T01:20:36.705Z,99022.41
2023-02-02T01:24:33.645Z,99025.94
2023-02-02T01:34:06.044Z,99022.20
2023-02-02T02:02:46.511Z,99017.70
2023-02-02T02:11:36.786Z,99021.61
2023-02-02T02:15:50.913Z,99018.95
2023-02-02T02:19:08.846Z,99020.21
2023-02-02T02:23:55.741Z,99018.58
2023-02-02T02:28:42.842Z,99020.44
2023-02-02T02:32:43.666Z,99022.48
2023-02-02T02:37:02.760Z,99017.86
2023-02-02T02:40:02.469Z,99022.94
2023-02-02T02:42:57.372Z,99018.45
2023-02-02T02:45:44.740Z,99022.93
2023-02-02T02:48:31.443Z,99021.80
2023-02-02T02:51:50.507Z,99024.20
2023-02-02T02:54:45.745Z,99024.68
2023-02-02T02:57:59.329Z,99024.14
2023-02-02T03:01:48.295Z,99022.44
2023-02-02T03:05:11.123Z,99025.70
2023-02-02T03:08:04.959Z,99028.29
2023-02-02T03:10:52.974Z,99026.58
2023-02-02T03:13:42.065Z,99031.33
2023-02-02T03:16:28.850Z,99034.19
2023-02-02T03:19:15.297Z,99036.20
2023-02-02T03:22:01.435Z,99028.94
2023-02-02T03:24:47.701Z,99027.63
2023-02-02T03:27:35.006Z,99026.19
2023-02-02T03:40:58.211Z,99017.05
2023-02-02T03:43:53.754Z,99016.98
2023-02-02T03:47:49.228Z,99013.42
2023-02-02T03:51:47.816Z,99016.48
2023-02-02T03:55:43.051Z,99015.02
2023-02-02T03:58:30.306Z,99018.60
2023-02-02T04:01:17.406Z,99020.18
2023-02-02T04:04:03.903Z,99020.03
2023-02-02T04:06:50.577Z,99016.98
2023-02-02T04:09:37.042Z,99017.65
2023-02-02T04:12:23.746Z,99012.96
2023-02-02T04:15:10.339Z,99010.51
2023-02-02T04:17:56.818Z,99014.48
2023-02-02T04:22:54.116Z,99010.27
2023-02-02T04:25:59.787Z,99013.84
2023-02-02T04:30:00.508Z,99012.80
2023-02-02T04:33:59.485Z,99018.30
2023-02-02T04:37:57.526Z,99019.44
2023-02-02T04:41:53.162Z,99020.89
2023-02-02T04:45:48.475Z,99019.64
2023-02-02T04:50:12.797Z,99017.16
2023-02-02T04:54:36.121Z,99020.65
2023-02-02T04:58:30.951Z,99018.39
2023-02-02T05:02:28.581Z,99023.85
2023-02-02T05:06:26.755Z,99020.98
2023-02-02T05:10:21.986Z,99024.59
2023-02-02T05:14:20.433Z,99028.66
2023-02-02T05:17:06.741Z,99033.84
2023-02-02T05:19:53.431Z,99034.05
2023-02-02T05:22:40.115Z,99033.88
2023-02-02T05:25:26.866Z,99033.29
2023-02-02T05:29:35.959Z,99032.79
2023-02-02T05:32:22.663Z,99034.11
2023-02-02T05:35:10.201Z,99031.27
2023-02-02T05:37:59.019Z,99032.52
2023-02-02T05:45:29.158Z,99035.80
2023-02-02T05:48:15.617Z,99039.73
2023-02-02T05:51:23.295Z,99040.91
2023-02-02T05:54:09.591Z,99037.38
2023-02-02T05:56:57.062Z,99035.52
2023-02-02T05:59:43.497Z,99034.85
2023-02-02T06:02:29.994Z,99040.69
2023-02-02T06:05:16.815Z,99040.23
2023-02-02T06:09:42.489Z,99042.64
2023-02-02T06:12:28.855Z,99047.31
2023-02-02T06:15:15.608Z,99048.17
2023-02-02T06:18:02.468Z,99040.44
2023-02-02T06:20:48.892Z,99044.76
2023-02-02T06:23:35.666Z,99040.41
2023-02-02T06:26:22.330Z,99044.57
2023-02-02T06:29:12.701Z,99042.03
2023-02-02T06:31:59.581Z,99043.27
2023-02-02T06:34:45.972Z,99039.97
2023-02-02T06:37:34.293Z,99038.49
2023-02-02T06:40:21.038Z,99036.23
2023-02-02T06:43:09.085Z,99037.43
2023-02-02T06:45:58.039Z,99036.15
2023-02-02T06:48:45.893Z,99033.85
2023-02-02T06:51:32.138Z,99032.98
2023-02-02T06:55:39.360Z,99037.10
2023-02-02T06:58:26.702Z,99035.83
2023-02-02T07:01:14.533Z,99038.71
2023-02-02T07:04:01.211Z,99036.96
2023-02-02T07:06:47.887Z,99033.92
2023-02-02T07:09:34.588Z,99034.27
2023-02-02T07:12:57.071Z,99033.70
2023-02-02T07:16:54.578Z,99034.27
2023-02-02T07:19:41.021Z,99028.43
2023-02-02T07:22:27.445Z,99026.81
2023-02-02T07:25:14.185Z,99026.30
2023-02-02T07:28:02.453Z,99026.45
2023-02-02T07:30:49.540Z,99029.50
2023-02-02T07:33:41.264Z,99029.33
2023-02-02T07:36:28.092Z,99031.56
2023-02-02T07:39:14.614Z,99031.26
2023-02-02T07:42:01.251Z,99034.48
2023-02-02T07:44:47.579Z,99036.94
2023-02-02T07:47:33.835Z,99034.14
2023-02-02T07:50:31.248Z,99035.05
2023-02-02T07:53:17.988Z,99033.02
2023-02-02T07:56:11.509Z,99034.17
2023-02-02T07:58:58.484Z,99033.13
2023-02-02T08:01:45.286Z,99035.02
2023-02-02T08:04:33.855Z,99036.05
2023-02-02T08:07:32.351Z,99040.86
2023-02-02T08:10:19.473Z,99045.67
2023-02-02T08:13:06.338Z,99045.48
2023-02-02T08:15:52.897Z,99045.58
2023-02-02T08:18:39.993Z,99046.98
2023-02-02T08:21:27.402Z,99047.70
2023-02-02T08:24:13.983Z,99051.08
2023-02-02T08:27:00.715Z,99050.04
2023-02-02T08:29:47.999Z,99051.91
2023-02-02T08:32:34.470Z,99047.31
2023-02-02T08:35:21.940Z,99045.64
2023-02-02T08:38:09.076Z,99049.22
2023-02-02T08:40:56.167Z,99048.28
2023-02-02T08:43:43.932Z,99051.84
2023-02-02T08:46:31.170Z,99055.86
2023-02-02T08:49:18.093Z,99054.38
2023-02-02T08:52:05.253Z,99051.79
2023-02-02T08:54:53.312Z,99053.48
2023-02-02T08:57:40.143Z,99058.02
2023-02-02T09:00:27.284Z,99056.47
2023-02-02T09:03:17.129Z,99060.88
2023-02-02T09:06:08.829Z,99059.81
2023-02-02T09:08:55.520Z,99059.27
2023-02-02T09:11:42.555Z,99059.93
2023-02-02T09:14:29.397Z,99066.17
2023-02-02T09:17:16.122Z,99061.92
2023-02-02T09:20:02.858Z,99062.98
2023-02-02T09:22:49.144Z,99070.08
2023-02-02T09:25:35.627Z,99065.73
2023-02-02T09:33:07.218Z,99073.56
2023-02-02T09:35:54.259Z,99075.76
2023-02-02T09:38:42.755Z,99080.38
2023-02-02T09:46:11.961Z,99086.75
2023-02-02T09:49:07.853Z,99091.55
2023-02-02T09:52:02.248Z,99095.00
2023-02-02T09:54:52.358Z,99099.11
2023-02-02T09:57:45.123Z,99101.20
2023-02-02T10:05:08.854Z,99110.39
2023-02-02T10:08:02.677Z,99116.56
2023-02-02T10:10:51.980Z,99119.37
2023-02-02T10:13:44.017Z,99119.77
2023-02-02T10:16:32.576Z,99124.91
2023-02-02T10:19:20.787Z,99125.52
2023-02-02T10:22:13.304Z,99126.37
2023-02-02T10:25:00.167Z,99131.50
2023-02-02T10:28:05.251Z,99133.34
2023-02-02T10:31:01.374Z,99135.92
2023-02-02T10:34:14.068Z,99137.34
2023-02-02T10:37:17.549Z,99142.45
2023-02-02T10:40:35.898Z,99148.14
2023-02-02T10:44:06.269Z,99146.89
2023-02-02T10:46:58.568Z,99148.08
2023-02-02T10:49:46.013Z,99158.63
2023-02-02T10:52:34.709Z,99162.63
2023-02-02T10:55:28.539Z,99169.69
2023-02-02T10:58:21.348Z,99171.80
2023-02-02T11:01:12.026Z,99175.92
2023-02-02T11:04:18.217Z,99178.38
2023-02-02T11:07:05.527Z,99186.63
2023-02-02T11:09:54.228Z,99193.50
2023-02-02T11:12:47.112Z,99199.66
2023-02-02T11:15:34.326Z,99204.84
2023-02-02T11:18:30.125Z,99212.79
2023-02-02T11:22:40.489Z,99223.35
2023-02-02T11:27:05.009Z,99227.67
2023-02-02T11:30:37.228Z,99230.14
2023-02-02T11:35:04.374Z,99232.88
2023-02-02T11:39:20.501Z,99234.34
2023-02-02T11:43:19.696Z,99238.35
2023-02-02T11:47:25.813Z,99239.16
2023-02-02T11:51:28.640Z,99241.86
2023-02-02T11:55:17.732Z,99247.66
2023-02-02T11:59:04.335Z,99253.77
2023-02-02T12:01:51.392Z,99258.20
2023-02-02T12:04:41.029Z,99263.25
2023-02-02T12:07:54.746Z,99266.78
2023-02-02T12:10:51.643Z,99269.77
2023-02-02T12:16:37.729Z,99277.26
2023-02-02T12:19:57.590Z,99282.05
2023-02-02T12:24:20.745Z,99287.72
2023-02-02T12:27:22.395Z,99294.63
2023-02-02T12:30:47.659Z,99294.19
2023-02-02T12:33:44.154Z,99298.05
2023-02-02T12:36:39.483Z,99297.61
2023-02-02T12:40:00.375Z,99303.13
2023-02-02T12:43:22.261Z,99309.81
2023-02-02T12:55:17.670Z,99342.40
2023-02-02T12:58:32.726Z,99349.09
2023-02-02T13:01:54.504Z,99353.95
2023-02-02T13:06:20.531Z,99366.17
2023-02-02T13:20:02.246Z,99394.20
2023-02-02T13:34:03.739Z,99429.92
2023-02-02T13:37:57.270Z,99443.65
2023-02-02T13:41:07.280Z,99448.23
2023-02-02T13:44:43.393Z,99454.05
2023-02-02T13:58:53.993Z,99479.14
2023-02-02T14:02:31.089Z,99486.39
2023-02-02T14:05:33.276Z,99499.32
2023-02-02T14:08:34.114Z,99503.59
2023-02-02T14:11:35.020Z,99507.86
2023-02-02T14:14:32.562Z,99513.34
2023-02-02T14:17:21.995Z,99520.21
2023-02-02T14:22:44.689Z,99532.38
2023-02-02T14:26:41.549Z,99542.90
2023-02-02T14:30:40.368Z,99555.59
2023-02-02T14:34:44.688Z,99563.25
2023-02-02T14:38:47.757Z,99572.77
2023-02-02T14:42:41.858Z,99581.48
2023-02-02T14:46:41.371Z,99587.67
2023-02-02T14:50:39.662Z,99597.19
2023-02-02T14:54:39.924Z,99609.40
2023-02-02T14:58:37.257Z,99613.23
2023-02-02T15:02:37.348Z,99625.23
2023-02-02T15:06:37.812Z,99632.95
2023-02-02T15:21:06.838Z,99666.98
2023-02-02T15:24:16.697Z,99684.80
2023-02-02T15:28:39.272Z,99697.60
2023-02-02T15:43:43.745Z,99732.29
2023-02-02T15:46:40.219Z,99750.77
2023-02-02T15:50:48.231Z,99760.91
2023-02-02T15:54:52.016Z,99771.51
2023-02-02T15:58:33.625Z,99783.55
2023-02-02T16:17:35.605Z,99838.61
2023-02-02T16:20:39.025Z,99851.43
2023-02-02T16:25:43.345Z,99859.23
2023-02-02T16:28:38.268Z,99867.03
2023-02-02T16:31:25.717Z,99874.58
2023-02-02T16:34:41.199Z,99879.66
2023-02-02T16:37:33.168Z,99883.14
2023-02-02T16:40:27.994Z,99890.83
2023-02-02T16:43:21.120Z,99895.66
2023-02-02T16:46:13.607Z,99907.42
2023-02-02T16:49:00.921Z,99909.70
2023-02-02T16:52:30.994Z,99914.02
2023-02-02T16:55:19.488Z,99919.93
2023-02-02T16:58:06.298Z,99932.45
2023-02-02T17:01:15.652Z,99942.39
2023-02-02T17:04:05.866Z,99943.75
2023-02-02T17:06:53.609Z,99950.41
2023-02-02T17:09:42.926Z,99956.54
2023-02-02T17:12:35.328Z,99967.20
2023-02-02T17:15:40.062Z,99963.95
2023-02-02T17:18:26.641Z,99971.78
2023-02-02T17:21:24.976Z,99978.95
2023-02-02T17:24:12.058Z,99980.54
2023-02-02T17:26:58.871Z,99986.86
2023-02-02T17:29:46.445Z,99993.66
2023-02-02T17:32:32.919Z,99996.88
2023-02-02T17:37:41.454Z,100005.05
2023-02-02T17:40:28.380Z,100018.48
2023-02-02T17:43:16.231Z,100022.48
2023-02-02T17:46:46.419Z,100033.61
2023-02-02T17:49:33.042Z,100037.70
2023-02-02T17:54:14.339Z,100045.17
2023-02-02T18:08:13.830Z,100065.30
2023-02-02T18:11:12.362Z,100078.09
2023-02-02T18:13:59.413Z,100087.31
2023-02-02T18:16:46.121Z,100088.39
2023-02-02T18:19:32.892Z,100097.21
2023-02-02T18:22:19.912Z,100105.30
2023-02-02T18:25:07.273Z,100113.84
2023-02-02T18:27:57.107Z,100115.83
2023-02-02T18:30:44.700Z,100124.71
2023-02-02T18:33:31.989Z,100134.03
2023-02-02T18:36:21.839Z,100139.30
2023-02-02T18:39:10.021Z,100143.47
2023-02-02T18:41:57.170Z,100145.02
2023-02-02T18:44:44.827Z,100148.75
2023-02-02T18:47:31.331Z,100151.36
2023-02-02T18:50:17.871Z,100156.77
2023-02-02T18:53:04.256Z,100158.84
2023-02-02T18:55:50.891Z,100165.42
2023-02-02T18:58:49.185Z,100169.54
2023-02-02T19:01:40.002Z,100175.11
2023-02-02T19:04:29.788Z,100175.93
2023-02-02T19:07:38.707Z,100184.89
2023-02-02T19:10:29.436Z,100192.89
2023-02-02T19:13:20.455Z,100196.23
2023-02-02T19:16:17.912Z,100201.46
2023-02-02T19:19:12.899Z,100208.02
2023-02-02T19:22:07.757Z,100211.20
2023-02-02T19:25:13.596Z,100215.86
2023-02-02T19:28:25.632Z,100223.92
2023-02-02T19:31:15.039Z,100237.73
2023-02-02T19:34:03.948Z,100244.87
2023-02-02T19:36:51.324Z,100253.51
2023-02-02T19:39:37.892Z,100255.88
2023-02-02T19:42:24.429Z,100260.20
2023-02-02T19:45:33.525Z,100266.96
2023-02-02T19:48:35.515Z,100278.02
2023-02-02T19:51:44.435Z,100291.23
2023-02-02T19:54:45.199Z,100297.79
2023-02-02T19:57:37.082Z,100305.95
2023-02-02T20:00:27.297Z,100308.05
2023-02-02T20:03:23.935Z,100313.85
2023-02-02T20:06:23.683Z,100323.82
2023-02-02T20:09:17.076Z,100332.73
2023-02-02T20:12:21.328Z,100338.75
2023-02-02T20:15:27.205Z,100343.02
2023-02-02T20:18:24.658Z,100350.80
2023-02-02T20:21:24.054Z,100358.57
2023-02-02T20:24:25.358Z,100361.55
2023-02-02T20:27:19.451Z,100369.13
2023-02-02T20:30:20.409Z,100378.34
2023-02-02T20:33:21.278Z,100387.11
2023-02-02T20:36:41.299Z,100389.30
2023-02-02T20:39:27.641Z,100397.62
2023-02-02T20:42:15.427Z,100399.30
2023-02-02T20:45:05.963Z,100400.94
2023-02-02T20:47:53.331Z,100411.05
2023-02-02T20:50:40.637Z,100417.89
2023-02-02T20:53:27.445Z,100417.25
2023-02-02T20:56:14.282Z,100422.93
2023-02-02T20:59:01.318Z,100427.60
2023-02-02T21:01:50.127Z,100436.73
2023-02-02T21:04:36.597Z,100434.77
2023-02-02T21:07:23.346Z,100441.66
2023-02-02T21:10:10.519Z,100448.95
2023-02-02T21:12:57.399Z,100452.92
2023-02-02T21:15:43.952Z,100450.23
2023-02-02T21:18:30.683Z,100451.34
2023-02-02T21:21:19.040Z,100451.85
2023-02-02T21:24:05.971Z,100457.13
2023-02-02T21:26:53.972Z,100458.27
2023-02-02T21:29:40.507Z,100463.60
2023-02-02T21:32:27.267Z,100473.08
2023-02-02T21:35:15.172Z,100478.84
2023-02-02T21:38:13.103Z,100483.13
2023-02-02T21:41:00.081Z,100493.30
2023-02-02T21:43:46.554Z,100498.77
2023-02-02T21:46:37.177Z,100501.42
2023-02-02T21:49:37.554Z,100510.48
2023-02-02T21:52:26.012Z,100513.44
2023-02-02T21:55:28.947Z,100522.88
2023-02-02T21:58:18.126Z,100526.18
2023-02-02T22:01:17.037Z,100531.09
2023-02-02T22:04:03.803Z,100529.62
2023-02-02T22:06:56.575Z,100530.16
2023-02-02T22:09:45.327Z,100536.06
2023-02-02T22:12:32.722Z,100541.04
2023-02-02T22:15:24.680Z,100547.52
2023-02-02T22:18:23.169Z,100541.77
2023-02-02T22:21:12.985Z,100538.14
2023-02-02T22:24:00.578Z,100538.52
2023-02-02T22:26:47.908Z,100541.23
2023-02-02T22:29:35.269Z,100546.61
2023-02-02T22:32:21.876Z,100558.09
2023-02-02T22:35:08.729Z,100563.88
2023-02-02T22:37:55.228Z,100566.86
2023-02-02T22:40:41.877Z,100571.86
2023-02-02T22:43:28.660Z,100573.91
2023-02-02T22:46:14.881Z,100572.59
2023-02-02T22:49:01.596Z,100574.08
2023-02-02T22:51:48.303Z,100583.77
2023-02-02T22:54:34.647Z,100585.76
2023-02-02T22:57:21.242Z,100592.27
2023-02-02T23:00:21.949Z,100594.63
2023-02-02T23:03:08.817Z,100598.34
2023-02-02T23:05:55.598Z,100599.50
2023-02-02T23:08:42.076Z,100612.06
2023-02-02T23:11:28.554Z,100615.55
2023-02-02T23:14:17.061Z,100620.65
2023-02-02T23:17:03.919Z,100630.09
2023-02-02T23:19:50.235Z,100626.44
2023-02-02T23:22:36.846Z,100632.20
2023-02-02T23:25:23.736Z,100641.11
2023-02-02T23:28:10.696Z,100643.25
2023-02-02T23:30:59.263Z,100650.14
2023-02-02T23:33:46.571Z,100652.92
2023-02-02T23:36:32.804Z,100656.54
2023-02-02T23:39:19.790Z,100657.64
2023-02-02T23:42:06.665Z,100655.05
2023-02-02T23:44:53.350Z,100652.24
2023-02-02T23:47:40.152Z,100657.84
2023-02-02T23:50:28.113Z,100656.13
2023-02-02T23:53:16.025Z,100657.82
2023-02-02T23:56:02.652Z,100664.25
2023-02-02T23:58:49.798Z,100667.69
